createdAt,value
2022-10-28T00:01:11.205Z,90.00
2022-10-28T00:03:40.325Z,90.38
2022-10-28T00:06:27.141Z,90.49
2022-10-28T00:08:53.862Z,90.65
2022-10-28T00:11:32.675Z,90.11
2022-10-28T00:14:01.857Z,90.62
2022-10-28T00:16:33.768Z,90.63
2022-10-28T00:19:01.785Z,90.69
2022-10-28T00:21:30.946Z,90.64
2022-10-28T00:23:58.352Z,89.89
2022-10-28T00:26:28.348Z,89.66
2022-10-28T00:28:57.860Z,88.77
2022-10-28T00:31:26.940Z,88.94
2022-10-28T00:33:54.015Z,88.88
2022-10-28T00:36:29.840Z,89.19
2022-10-28T00:38:57.006Z,89.58
2022-10-28T00:41:35.506Z,89.63
2022-10-28T00:44:23.515Z,90.09
2022-10-28T00:46:53.329Z,89.77
2022-10-28T00:49:19.833Z,89.62
2022-10-28T00:51:49.025Z,89.92
2022-10-28T00:54:17.591Z,89.86
2022-10-28T00:56:48.274Z,89.89
2022-10-28T00:59:36.578Z,89.89
2022-10-28T01:02:05.291Z,90.25
2022-10-28T01:04:32.100Z,90.39
2022-10-28T01:07:01.496Z,90.84
2022-10-28T01:09:28.219Z,90.59
2022-10-28T01:12:10.044Z,90.54
2022-10-28T01:15:00.339Z,90.69
2022-10-28T01:17:29.609Z,91.17
2022-10-28T01:20:13.741Z,90.73
2022-10-28T01:22:52.656Z,91.05
2022-10-28T01:25:44.110Z,91.36
2022-10-28T01:28:38.882Z,91.65
2022-10-28T01:31:42.495Z,92.04
2022-10-28T01:34:32.276Z,92.28
2022-10-28T01:36:58.752Z,91.94
2022-10-28T01:39:34.068Z,92.20
2022-10-28T01:42:30.667Z,92.05
2022-10-28T01:45:00.230Z,91.95
2022-10-28T01:47:33.408Z,91.83
2022-10-28T01:50:08.741Z,91.46
2022-10-28T01:52:37.859Z,90.87
2022-10-28T01:55:25.545Z,90.68
2022-10-28T01:57:54.698Z,90.42
2022-10-28T02:00:21.536Z,89.70
2022-10-28T02:02:50.844Z,89.35
2022-10-28T02:05:39.526Z,89.41
2022-10-28T02:08:18.275Z,88.53
2022-10-28T02:11:12.986Z,88.65
2022-10-28T02:13:45.481Z,88.58
2022-10-28T02:16:37.289Z,87.34
2022-10-28T02:19:13.084Z,86.44
2022-10-28T02:22:02.972Z,87.44
2022-10-28T02:25:08.405Z,86.50
2022-10-28T02:27:59.104Z,87.01
2022-10-28T02:30:32.222Z,86.90
2022-10-28T02:33:06.642Z,87.02
2022-10-28T02:35:42.664Z,87.35
2022-10-28T02:38:14.117Z,87.66
2022-10-28T02:40:44.467Z,87.51
2022-10-28T02:43:13.368Z,87.32
2022-10-28T02:45:46.972Z,87.13
2022-10-28T02:48:18.910Z,87.52
2022-10-28T02:50:54.016Z,87.33
2022-10-28T02:56:02.360Z,86.69
2022-10-28T02:58:29.725Z,87.03
2022-10-28T03:00:56.292Z,86.89
2022-10-28T03:03:23.046Z,87.05
2022-10-28T03:05:49.578Z,86.91
2022-10-28T03:08:16.202Z,85.22
2022-10-28T03:10:42.818Z,85.67
2022-10-28T03:13:09.427Z,85.71
2022-10-28T03:15:36.020Z,85.66
2022-10-28T03:18:02.689Z,85.65
2022-10-28T03:20:29.265Z,85.61
2022-10-28T03:22:56.130Z,85.76
2022-10-28T03:25:22.895Z,86.11
2022-10-28T03:27:49.433Z,86.05
2022-10-28T03:30:18.526Z,86.08
2022-10-28T03:32:45.150Z,86.39
2022-10-28T03:35:11.758Z,86.64
2022-10-28T03:37:41.379Z,86.79
2022-10-28T03:40:08.316Z,87.02
2022-10-28T03:42:37.559Z,87.35
2022-10-28T03:45:07.855Z,87.43
2022-10-28T03:47:35.004Z,86.96
2022-10-28T03:50:02.054Z,86.88
2022-10-28T03:52:28.781Z,86.83
2022-10-28T03:54:55.333Z,86.72
2022-10-28T03:57:21.948Z,86.56
2022-10-28T03:59:48.582Z,86.72
2022-10-28T04:02:15.891Z,86.57
2022-10-28T04:04:42.599Z,86.76
2022-10-28T04:07:09.119Z,86.91
2022-10-28T04:09:35.747Z,86.94
2022-10-28T04:12:02.359Z,87.06
2022-10-28T04:14:28.992Z,87.40
2022-10-28T04:16:55.520Z,87.40
2022-10-28T04:19:22.056Z,87.34
2022-10-28T04:21:48.714Z,87.58
2022-10-28T04:24:15.284Z,87.76
2022-10-28T04:26:41.818Z,87.46
2022-10-28T04:29:08.417Z,87.65
2022-10-28T04:31:34.985Z,87.38
2022-10-28T04:34:03.671Z,87.18
2022-10-28T04:36:30.244Z,87.26
2022-10-28T04:38:56.900Z,87.13
2022-10-28T04:41:23.410Z,86.91
2022-10-28T04:43:49.940Z,86.79
2022-10-28T04:46:16.552Z,86.19
2022-10-28T04:48:43.251Z,86.88
2022-10-28T04:51:09.811Z,86.59
2022-10-28T04:53:36.415Z,86.60
2022-10-28T04:56:03.006Z,86.42
2022-10-28T04:58:29.590Z,87.02
2022-10-28T05:00:56.236Z,86.92
2022-10-28T05:03:22.932Z,86.57
2022-10-28T05:05:49.536Z,86.39
2022-10-28T05:08:16.115Z,86.52
2022-10-28T05:10:42.681Z,87.03
2022-10-28T05:13:09.270Z,86.72
2022-10-28T05:15:35.834Z,86.87
2022-10-28T05:18:02.387Z,87.21
2022-10-28T05:20:28.987Z,86.84
2022-10-28T05:22:57.034Z,86.61
2022-10-28T05:25:24.719Z,85.99
2022-10-28T05:27:51.366Z,85.66
2022-10-28T05:30:18.855Z,85.08
2022-10-28T05:32:45.451Z,84.81
2022-10-28T05:35:12.319Z,85.03
2022-10-28T05:37:38.871Z,85.68
2022-10-28T05:40:05.918Z,85.41
2022-10-28T05:42:32.517Z,85.26
2022-10-28T05:44:59.142Z,85.17
2022-10-28T05:47:25.777Z,85.40
2022-10-28T05:49:52.350Z,86.04
2022-10-28T05:52:18.918Z,86.21
2022-10-28T05:54:45.450Z,85.87
2022-10-28T05:57:12.037Z,85.46
2022-10-28T05:59:38.641Z,85.52
2022-10-28T06:02:05.239Z,85.56
2022-10-28T06:04:33.031Z,85.29
2022-10-28T06:06:59.570Z,84.61
2022-10-28T06:09:28.652Z,83.42
2022-10-28T06:11:53.706Z,84.29
2022-10-28T06:14:20.233Z,84.03
2022-10-28T06:16:46.777Z,83.81
2022-10-28T06:19:13.376Z,83.76
2022-10-28T06:21:40.110Z,83.81
2022-10-28T06:24:11.229Z,84.11
2022-10-28T06:26:39.402Z,84.60
2022-10-28T06:29:09.293Z,84.99
2022-10-28T06:31:42.490Z,84.15
2022-10-28T06:34:09.599Z,85.35
2022-10-28T06:36:36.711Z,84.67
2022-10-28T06:39:03.891Z,84.01
2022-10-28T06:41:30.694Z,83.82
2022-10-28T06:43:57.343Z,83.35
2022-10-28T06:46:23.988Z,83.65
2022-10-28T06:48:54.536Z,83.16
2022-10-28T06:51:21.164Z,82.93
2022-10-28T06:53:51.835Z,82.23
2022-10-28T06:56:18.759Z,82.05
2022-10-28T06:58:50.817Z,82.56
2022-10-28T07:01:17.906Z,81.95
2022-10-28T07:03:44.713Z,82.57
2022-10-28T07:06:11.337Z,82.13
2022-10-28T07:08:37.939Z,82.14
2022-10-28T07:11:04.705Z,81.80
2022-10-28T07:13:31.438Z,81.06
2022-10-28T07:15:59.992Z,81.78
2022-10-28T07:18:29.372Z,81.53
2022-10-28T07:21:00.050Z,81.47
2022-10-28T07:23:26.789Z,81.73
2022-10-28T07:25:55.082Z,81.46
2022-10-28T07:28:23.576Z,80.61
2022-10-28T07:30:50.451Z,80.20
2022-10-28T07:33:17.022Z,79.70
2022-10-28T07:35:44.356Z,79.74
2022-10-28T07:38:11.258Z,80.01
2022-10-28T07:40:38.236Z,80.32
2022-10-28T07:43:04.789Z,80.45
2022-10-28T07:45:31.557Z,80.74
2022-10-28T07:47:58.107Z,79.52
2022-10-28T07:50:24.640Z,79.82
2022-10-28T07:52:51.398Z,80.61
2022-10-28T07:55:18.380Z,79.84
2022-10-28T07:57:44.912Z,79.86
2022-10-28T08:00:11.772Z,78.67
2022-10-28T08:02:38.551Z,77.71
2022-10-28T08:05:05.543Z,78.66
2022-10-28T08:07:34.867Z,77.58
2022-10-28T08:10:04.919Z,77.75
2022-10-28T08:12:31.585Z,77.87
2022-10-28T08:14:58.217Z,77.00
2022-10-28T08:17:24.866Z,77.04
2022-10-28T08:19:51.469Z,76.38
2022-10-28T08:22:18.203Z,76.41
2022-10-28T08:24:44.882Z,75.63
2022-10-28T08:27:11.532Z,72.91
2022-10-28T08:29:38.197Z,73.79
2022-10-28T08:32:08.107Z,74.35
2022-10-28T08:34:36.881Z,73.47
2022-10-28T08:37:06.266Z,74.57
2022-10-28T08:39:32.889Z,72.04
2022-10-28T08:42:22.680Z,72.26
2022-10-28T08:45:15.321Z,71.84
2022-10-28T08:47:45.341Z,70.20
2022-10-28T08:50:18.441Z,70.81
2022-10-28T08:53:05.565Z,69.88
2022-10-28T08:55:37.257Z,70.23
2022-10-28T08:58:12.090Z,70.54
2022-10-28T09:00:40.159Z,70.16
2022-10-28T09:03:12.650Z,70.79
2022-10-28T09:05:41.253Z,69.86
2022-10-28T09:08:19.318Z,70.33
2022-10-28T09:11:17.870Z,65.80
2022-10-28T09:14:18.731Z,67.97
2022-10-28T09:16:51.121Z,69.17
2022-10-28T09:19:41.007Z,67.63
2022-10-28T09:22:45.758Z,67.69
2022-10-28T09:25:53.996Z,67.47
2022-10-28T09:28:42.001Z,67.24
2022-10-28T09:31:37.896Z,67.53
2022-10-28T09:34:44.297Z,67.73
2022-10-28T09:37:25.994Z,66.79
2022-10-28T09:39:56.948Z,68.10
2022-10-28T09:42:49.692Z,68.86
2022-10-28T09:45:30.548Z,67.40
2022-10-28T09:48:06.013Z,67.88
2022-10-28T09:50:33.243Z,66.95
2022-10-28T09:53:18.129Z,66.50
2022-10-28T09:55:44.880Z,66.14
2022-10-28T09:58:13.133Z,66.86
2022-10-28T10:00:40.041Z,66.99
2022-10-28T10:03:06.671Z,65.63
2022-10-28T10:05:38.382Z,65.48
2022-10-28T10:08:05.760Z,66.51
2022-10-28T10:10:51.094Z,66.68
2022-10-28T10:13:23.962Z,66.48
2022-10-28T10:16:13.657Z,66.07
2022-10-28T10:18:46.899Z,65.41
2022-10-28T10:21:14.675Z,64.89
2022-10-28T10:23:41.435Z,66.43
2022-10-28T10:26:12.652Z,65.91
2022-10-28T10:28:47.553Z,64.25
2022-10-28T10:31:21.070Z,63.75
2022-10-28T10:33:53.630Z,64.71
2022-10-28T10:36:23.775Z,64.56
2022-10-28T10:38:56.094Z,64.79
2022-10-28T10:41:43.781Z,63.83
2022-10-28T10:44:22.526Z,64.42
2022-10-28T10:46:55.440Z,62.56
2022-10-28T10:49:22.000Z,63.31
2022-10-28T10:51:58.286Z,61.66
2022-10-28T10:54:31.922Z,62.02
2022-10-28T10:57:08.784Z,62.74
2022-10-28T10:59:37.888Z,63.46
2022-10-28T11:02:18.020Z,60.99
2022-10-28T11:04:52.021Z,59.53
2022-10-28T11:07:18.658Z,61.05
2022-10-28T11:09:48.955Z,60.24
2022-10-28T11:12:15.700Z,60.22
2022-10-28T11:14:56.037Z,59.34
2022-10-28T11:17:28.776Z,59.21
2022-10-28T11:19:58.512Z,58.27
2022-10-28T11:22:40.053Z,59.67
2022-10-28T11:25:12.732Z,58.94
2022-10-28T11:28:13.540Z,59.47
2022-10-28T11:30:57.972Z,59.21
2022-10-28T11:34:01.747Z,60.18
2022-10-28T11:37:09.689Z,57.80
2022-10-28T11:39:48.395Z,58.46
2022-10-28T11:43:03.732Z,57.13
2022-10-28T11:46:02.357Z,58.57
2022-10-28T11:49:02.192Z,58.81
2022-10-28T11:51:42.799Z,58.76
2022-10-28T11:54:22.434Z,56.19
2022-10-28T11:57:07.473Z,55.29
2022-10-28T11:59:58.670Z,58.95
2022-10-28T12:02:49.442Z,57.57
2022-10-28T12:05:44.955Z,56.97
2022-10-28T12:08:21.688Z,57.20
2022-10-28T12:11:12.830Z,56.53
2022-10-28T12:14:08.461Z,55.87
2022-10-28T12:16:40.751Z,55.29
2022-10-28T12:19:19.979Z,55.13
2022-10-28T12:21:50.326Z,53.80
2022-10-28T12:24:22.235Z,54.24
2022-10-28T12:26:53.436Z,52.77
2022-10-28T12:29:33.893Z,51.57
2022-10-28T12:32:05.664Z,52.83
2022-10-28T12:34:44.347Z,50.12
2022-10-28T12:37:24.598Z,50.57
2022-10-28T12:40:07.726Z,51.75
2022-10-28T12:42:40.003Z,51.80
2022-10-28T12:45:15.610Z,53.64
2022-10-28T12:47:50.081Z,53.03
2022-10-28T12:50:25.715Z,50.07
2022-10-28T12:53:01.471Z,51.58
2022-10-28T12:55:50.609Z,51.40
2022-10-28T12:58:38.464Z,48.31
2022-10-28T13:01:12.572Z,48.92
2022-10-28T13:03:40.599Z,50.34
2022-10-28T13:06:41.954Z,48.62
2022-10-28T13:09:52.869Z,48.45
2022-10-28T13:12:30.771Z,48.24
2022-10-28T13:15:30.800Z,46.12
2022-10-28T13:18:28.387Z,47.31
2022-10-28T13:21:05.203Z,48.14
2022-10-28T13:23:55.184Z,48.20
2022-10-28T13:26:24.269Z,47.48
2022-10-28T13:28:52.970Z,46.75
2022-10-28T13:31:20.467Z,47.20
2022-10-28T13:34:00.366Z,47.69
2022-10-28T13:36:30.536Z,47.28
2022-10-28T13:39:01.464Z,48.13
2022-10-28T13:41:27.986Z,47.87
2022-10-28T13:43:54.508Z,47.33
2022-10-28T13:46:58.558Z,47.81
2022-10-28T13:49:28.968Z,46.78
2022-10-28T13:52:07.805Z,45.77
2022-10-28T13:54:43.757Z,47.06
2022-10-28T13:57:31.895Z,48.08
2022-10-28T14:00:00.873Z,48.20
2022-10-28T14:02:56.949Z,45.89
2022-10-28T14:05:36.163Z,49.09
2022-10-28T14:08:08.502Z,49.02
2022-10-28T14:10:39.847Z,48.78
2022-10-28T14:13:17.693Z,48.80
2022-10-28T14:15:45.487Z,48.78
2022-10-28T14:18:41.826Z,47.51
2022-10-28T14:21:02.350Z,48.99
2022-10-28T14:23:28.988Z,48.11
2022-10-28T14:25:56.211Z,48.77
2022-10-28T14:28:29.218Z,49.11
2022-10-28T14:31:07.687Z,46.83
2022-10-28T14:33:54.443Z,47.79
2022-10-28T14:36:20.949Z,49.94
2022-10-28T14:38:53.535Z,49.33
2022-10-28T14:41:44.669Z,47.97
2022-10-28T14:44:23.740Z,49.79
2022-10-28T14:47:27.618Z,49.88
2022-10-28T14:50:22.793Z,49.47
2022-10-28T14:52:51.632Z,49.66
2022-10-28T14:55:31.347Z,51.12
2022-10-28T14:58:19.587Z,51.61
2022-10-28T15:01:18.703Z,51.49
2022-10-28T15:04:12.193Z,51.02
2022-10-28T15:06:45.943Z,51.29
2022-10-28T15:09:28.316Z,51.08
2022-10-28T15:12:06.096Z,52.35
2022-10-28T15:14:39.028Z,52.44
2022-10-28T15:17:22.266Z,52.63
2022-10-28T15:19:52.267Z,53.71
2022-10-28T15:22:26.012Z,53.38
2022-10-28T15:25:14.127Z,53.00
2022-10-28T15:27:42.681Z,53.14
2022-10-28T15:30:20.906Z,52.09
2022-10-28T15:32:47.484Z,53.81
2022-10-28T15:35:36.082Z,53.53
2022-10-28T15:38:38.565Z,53.45
2022-10-28T15:41:26.611Z,53.45
2022-10-28T15:44:01.333Z,55.14
2022-10-28T15:46:29.812Z,55.12
2022-10-28T15:49:01.536Z,54.70
2022-10-28T15:51:28.851Z,55.74
2022-10-28T15:54:11.603Z,55.80
2022-10-28T15:56:55.634Z,56.13
2022-10-28T15:59:24.554Z,56.12
2022-10-28T16:01:51.315Z,56.47
2022-10-28T16:04:23.986Z,56.64
2022-10-28T16:06:54.543Z,56.90
2022-10-28T16:09:35.816Z,57.22
2022-10-28T16:12:13.183Z,57.45
2022-10-28T16:14:42.569Z,57.83
2022-10-28T16:17:19.407Z,57.85
2022-10-28T16:20:03.383Z,57.94
2022-10-28T16:22:34.328Z,58.20
2022-10-28T16:25:00.928Z,59.30
2022-10-28T16:27:31.150Z,59.04
2022-10-28T16:29:58.335Z,59.61
2022-10-28T16:32:49.119Z,61.62
2022-10-28T16:35:18.668Z,61.52
2022-10-28T16:37:48.394Z,61.82
2022-10-28T16:43:04.796Z,62.63
2022-10-28T16:45:31.439Z,62.64
2022-10-28T16:47:58.121Z,63.01
2022-10-28T16:50:24.965Z,63.77
2022-10-28T16:52:52.918Z,63.67
2022-10-28T16:55:20.008Z,63.80
2022-10-28T16:57:46.613Z,64.36
2022-10-28T17:00:14.238Z,65.15
2022-10-28T17:02:41.485Z,64.90
2022-10-28T17:05:34.631Z,65.69
2022-10-28T17:08:05.802Z,66.58
2022-10-28T17:10:35.490Z,66.05
2022-10-28T17:13:03.111Z,66.50
2022-10-28T17:15:29.746Z,66.74
2022-10-28T17:17:57.973Z,66.71
2022-10-28T17:20:24.486Z,66.86
2022-10-28T17:22:51.076Z,67.58
2022-10-28T17:25:17.785Z,68.07
2022-10-28T17:27:48.454Z,67.96
2022-10-28T17:30:17.434Z,67.97
2022-10-28T17:32:54.165Z,68.96
2022-10-28T17:35:22.514Z,68.50
2022-10-28T17:37:49.493Z,68.77
2022-10-28T17:40:16.174Z,68.56
2022-10-28T17:42:42.808Z,68.93
2022-10-28T17:45:10.339Z,68.92
2022-10-28T17:47:37.022Z,69.61
2022-10-28T17:50:04.158Z,69.44
2022-10-28T17:52:35.621Z,69.49
2022-10-28T17:55:05.479Z,69.44
2022-10-28T17:57:32.078Z,69.41
2022-10-28T17:59:58.686Z,70.07
2022-10-28T18:02:25.574Z,70.15
2022-10-28T18:04:52.239Z,69.80
2022-10-28T18:07:18.810Z,70.37
2022-10-28T18:09:45.382Z,70.53
2022-10-28T18:12:12.735Z,70.53
2022-10-28T18:14:39.602Z,70.82
2022-10-28T18:17:06.280Z,70.58
2022-10-28T18:19:32.816Z,70.85
2022-10-28T18:21:59.480Z,70.89
2022-10-28T18:24:26.393Z,71.24
2022-10-28T18:26:54.879Z,71.39
2022-10-28T18:29:21.522Z,71.28
2022-10-28T18:31:48.154Z,71.68
2022-10-28T18:34:14.788Z,71.60
2022-10-28T18:36:41.417Z,72.14
2022-10-28T18:39:08.692Z,72.17
2022-10-28T18:41:41.568Z,72.27
2022-10-28T18:44:17.126Z,72.37
2022-10-28T18:46:45.375Z,72.29
2022-10-28T18:49:12.633Z,72.31
2022-10-28T18:51:39.317Z,72.66
2022-10-28T18:54:06.184Z,72.77
2022-10-28T18:56:34.288Z,72.83
2022-10-28T18:59:03.607Z,73.00
2022-10-28T19:01:31.932Z,72.66
2022-10-28T19:04:00.966Z,72.89
2022-10-28T19:06:32.454Z,73.58
2022-10-28T19:09:02.085Z,73.08
2022-10-28T19:11:31.240Z,73.05
2022-10-28T19:13:59.810Z,73.07
2022-10-28T19:16:27.664Z,73.20
2022-10-28T19:18:58.905Z,73.61
2022-10-28T19:21:27.135Z,73.76
2022-10-28T19:23:54.636Z,73.52
2022-10-28T19:26:23.067Z,73.75
2022-10-28T19:28:51.559Z,73.60
2022-10-28T19:31:23.729Z,73.82
2022-10-28T19:33:52.571Z,73.55
2022-10-28T19:36:23.209Z,73.95
2022-10-28T19:38:53.840Z,73.55
2022-10-28T19:41:23.531Z,73.52
2022-10-28T19:43:57.797Z,73.88
2022-10-28T19:46:26.388Z,74.38
2022-10-28T19:48:55.671Z,74.28
2022-10-28T19:51:23.514Z,74.63
2022-10-28T19:53:52.169Z,74.29
2022-10-28T19:56:20.153Z,74.35
2022-10-28T19:58:49.208Z,74.36
2022-10-28T20:01:16.716Z,74.40
2022-10-28T20:03:48.964Z,74.50
2022-10-28T20:06:17.474Z,74.44
2022-10-28T20:08:49.473Z,74.52
2022-10-28T20:11:24.747Z,74.83
2022-10-28T20:13:55.119Z,74.86
2022-10-28T20:16:22.265Z,74.89
2022-10-28T20:18:49.174Z,74.92
2022-10-28T20:21:20.723Z,75.07
2022-10-28T20:23:53.940Z,75.07
2022-10-28T20:26:26.073Z,74.85
2022-10-28T20:28:52.925Z,74.95
2022-10-28T20:31:22.390Z,74.80
2022-10-28T20:33:57.849Z,74.98
2022-10-28T20:36:29.424Z,74.72
2022-10-28T20:38:58.306Z,74.80
2022-10-28T20:41:26.622Z,75.31
2022-10-28T20:43:53.860Z,75.22
2022-10-28T20:46:21.945Z,75.54
2022-10-28T20:48:48.917Z,75.54
2022-10-28T20:51:15.793Z,76.17
2022-10-28T20:53:43.207Z,76.14
2022-10-28T20:56:20.034Z,76.39
2022-10-28T20:58:47.224Z,76.25
2022-10-28T21:01:19.931Z,76.56
2022-10-28T21:03:48.121Z,76.83
2022-10-28T21:06:16.456Z,77.17
2022-10-28T21:08:43.814Z,76.54
2022-10-28T21:11:13.378Z,77.15
2022-10-28T21:13:40.610Z,77.08
2022-10-28T21:16:09.360Z,77.69
2022-10-28T21:18:37.825Z,77.52
2022-10-28T21:21:05.418Z,78.09
2022-10-28T21:23:32.691Z,78.10
2022-10-28T21:26:01.597Z,78.14
2022-10-28T21:28:30.181Z,78.52
2022-10-28T21:31:07.245Z,78.81
2022-10-28T21:33:35.548Z,79.11
2022-10-28T21:36:05.176Z,79.01
2022-10-28T21:38:32.078Z,79.45
2022-10-28T21:41:18.863Z,79.73
2022-10-28T21:43:47.911Z,79.36
2022-10-28T21:46:15.026Z,79.65
2022-10-28T21:48:41.777Z,79.74
2022-10-28T21:51:13.520Z,79.79
2022-10-28T21:53:42.428Z,79.85
2022-10-28T21:56:18.854Z,79.83
2022-10-28T21:58:48.074Z,80.12
2022-10-28T22:01:20.600Z,80.07
2022-10-28T22:03:47.521Z,80.30
2022-10-28T22:06:14.192Z,80.62
2022-10-28T22:08:41.159Z,80.30
2022-10-28T22:11:12.318Z,80.68
2022-10-28T22:13:38.956Z,80.33
2022-10-28T22:16:08.027Z,80.65
2022-10-28T22:18:36.113Z,80.62
2022-10-28T22:21:07.363Z,80.81
2022-10-28T22:23:34.152Z,81.08
2022-10-28T22:26:02.188Z,80.56
2022-10-28T22:28:28.872Z,80.67
2022-10-28T22:30:59.772Z,80.66
2022-10-28T22:33:26.640Z,80.73
2022-10-28T22:36:00.134Z,80.85
2022-10-28T22:38:27.154Z,80.58
2022-10-28T22:41:16.332Z,80.68
2022-10-28T22:43:44.579Z,80.44
2022-10-28T22:46:13.311Z,80.72
2022-10-28T22:48:39.971Z,81.08
2022-10-28T22:51:07.070Z,81.22
2022-10-28T22:53:33.670Z,81.28
2022-10-28T22:56:00.254Z,81.29
2022-10-28T22:58:27.736Z,81.70
2022-10-28T23:00:54.361Z,81.70
2022-10-28T23:03:20.956Z,81.95
2022-10-28T23:05:47.591Z,81.47
2022-10-28T23:08:16.072Z,81.95
2022-10-28T23:10:42.742Z,82.15
2022-10-28T23:13:12.873Z,82.16
2022-10-28T23:15:39.580Z,82.50
2022-10-28T23:18:06.133Z,82.26
2022-10-28T23:20:34.792Z,82.58
2022-10-28T23:23:01.376Z,83.05
2022-10-28T23:25:27.976Z,83.25
2022-10-28T23:27:54.687Z,83.46
2022-10-28T23:30:21.600Z,83.99
2022-10-28T23:32:48.222Z,83.57
2022-10-28T23:35:14.988Z,83.69
2022-10-28T23:37:41.643Z,84.68
2022-10-28T23:42:41.649Z,84.84
2022-10-28T23:45:09.699Z,84.96
2022-10-28T23:47:36.543Z,84.77
2022-10-28T23:50:03.670Z,84.48
2022-10-28T23:52:30.198Z,84.77
2022-10-28T23:54:56.887Z,85.46
2022-10-28T23:57:23.454Z,85.42
2022-10-28T23:59:49.984Z,86.01
